createdAt,value
2018-02-16T00:00:12.693Z,96.10
2018-02-16T00:02:40.306Z,96.20
2018-02-16T00:05:07.877Z,96.20
2018-02-16T00:07:35.486Z,96.30
2018-02-16T00:10:03.116Z,96.50
2018-02-16T00:12:31.013Z,96.90
2018-02-16T00:14:58.578Z,97.30
2018-02-16T00:17:26.216Z,97.40
2018-02-16T00:19:53.823Z,97.50
2018-02-16T00:22:22.182Z,97.60
2018-02-16T00:24:49.786Z,97.50
2018-02-16T00:27:17.398Z,97.70
2018-02-16T00:29:45.015Z,97.80
2018-02-16T00:32:13.340Z,97.80
2018-02-16T00:34:40.970Z,97.80
2018-02-16T00:37:08.584Z,97.80
2018-02-16T00:39:36.948Z,97.80
2018-02-16T00:42:05.291Z,97.80
2018-02-16T00:44:32.878Z,97.70
2018-02-16T00:47:00.487Z,97.70
2018-02-16T00:49:28.882Z,97.70
2018-02-16T00:51:56.447Z,97.70
2018-02-16T00:54:24.010Z,97.70
2018-02-16T00:56:51.570Z,97.80
2018-02-16T00:59:19.178Z,97.80
2018-02-16T01:01:47.522Z,97.70
2018-02-16T01:04:15.133Z,97.60
2018-02-16T01:06:42.691Z,97.60
2018-02-16T01:09:10.336Z,97.50
2018-02-16T01:11:38.668Z,97.50
2018-02-16T01:14:06.278Z,97.50
2018-02-16T01:16:34.630Z,97.40
2018-02-16T01:19:02.230Z,97.40
2018-02-16T01:21:29.830Z,97.30
2018-02-16T01:23:57.510Z,97.30
2018-02-16T01:26:25.110Z,97.40
2018-02-16T01:28:52.723Z,97.50
2018-02-16T01:31:20.354Z,97.40
2018-02-16T01:33:48.740Z,97.60
2018-02-16T01:36:16.312Z,97.60
2018-02-16T01:38:43.897Z,98.00
2018-02-16T01:41:11.530Z,98.10
2018-02-16T01:43:39.131Z,98.60
2018-02-16T01:46:07.523Z,98.40
2018-02-16T01:48:35.142Z,98.40
2018-02-16T01:51:02.766Z,98.40
2018-02-16T01:53:30.338Z,98.40
2018-02-16T01:55:57.944Z,98.50
2018-02-16T01:58:26.264Z,98.70
2018-02-16T02:00:53.835Z,98.70
2018-02-16T02:03:21.396Z,98.80
2018-02-16T02:05:48.997Z,99.30
2018-02-16T02:08:17.402Z,99.60
2018-02-16T02:10:45.030Z,99.50
2018-02-16T02:13:12.622Z,99.50
2018-02-16T02:18:35.986Z,99.40
2018-02-16T02:21:04.306Z,99.50
2018-02-16T02:23:31.907Z,99.40
2018-02-16T02:25:59.506Z,99.40
2018-02-16T02:28:27.098Z,99.40
2018-02-16T02:30:54.747Z,99.40
2018-02-16T02:33:22.350Z,99.30
2018-02-16T02:35:49.911Z,99.30
2018-02-16T02:38:17.514Z,99.40
2018-02-16T02:40:45.119Z,99.30
2018-02-16T02:43:12.699Z,99.40
2018-02-16T02:45:41.085Z,99.20
2018-02-16T02:48:09.417Z,99.20
2018-02-16T02:50:36.992Z,99.20
2018-02-16T02:53:04.598Z,99.20
2018-02-16T02:55:32.168Z,99.30
2018-02-16T02:57:59.750Z,99.40
2018-02-16T03:00:27.331Z,99.50
2018-02-16T03:02:54.894Z,99.50
2018-02-16T03:05:22.487Z,99.50
2018-02-16T03:07:50.075Z,99.60
2018-02-16T03:10:17.659Z,99.50
2018-02-16T03:12:45.294Z,99.60
2018-02-16T03:15:12.892Z,99.60
2018-02-16T03:17:40.458Z,99.60
2018-02-16T03:20:08.059Z,99.60
2018-02-16T03:22:35.685Z,99.60
2018-02-16T03:25:03.263Z,99.60
2018-02-16T03:27:31.593Z,99.60
2018-02-16T03:29:59.210Z,99.60
2018-02-16T03:32:27.535Z,99.60
2018-02-16T03:34:55.117Z,99.50
2018-02-16T03:37:22.734Z,99.50
2018-02-16T03:39:50.326Z,99.50
2018-02-16T03:42:17.942Z,99.40
2018-02-16T03:44:45.542Z,99.40
2018-02-16T03:47:13.171Z,99.40
2018-02-16T03:49:43.635Z,99.40
2018-02-16T03:52:11.246Z,99.50
2018-02-16T03:54:38.805Z,99.40
2018-02-16T03:57:06.389Z,99.40
2018-02-16T03:59:33.987Z,99.30
2018-02-16T04:02:01.584Z,99.60
2018-02-16T04:04:29.168Z,99.20
2018-02-16T04:06:56.738Z,99.20
2018-02-16T04:09:24.631Z,99.10
2018-02-16T04:11:52.193Z,99.10
2018-02-16T04:14:19.834Z,99.10
2018-02-16T04:16:47.407Z,99.10
2018-02-16T04:19:15.014Z,99.00
2018-02-16T04:21:42.609Z,98.90
2018-02-16T04:24:10.223Z,99.20
2018-02-16T04:26:37.846Z,98.90
2018-02-16T04:29:05.464Z,98.90
2018-02-16T04:31:33.064Z,98.90
2018-02-16T04:34:00.633Z,98.90
2018-02-16T04:36:28.239Z,98.90
2018-02-16T04:38:55.798Z,98.80
2018-02-16T04:41:23.331Z,98.80
2018-02-16T04:43:51.694Z,98.80
2018-02-16T04:46:19.302Z,98.80
2018-02-16T04:48:46.898Z,98.70
2018-02-16T04:51:14.541Z,98.60
2018-02-16T04:53:42.141Z,98.60
2018-02-16T04:56:09.778Z,98.50
2018-02-16T04:58:37.407Z,98.60
2018-02-16T05:01:05.023Z,98.60
2018-02-16T05:03:32.605Z,98.60
2018-02-16T05:06:00.158Z,98.70
2018-02-16T05:08:28.502Z,98.80
2018-02-16T05:10:56.111Z,98.80
2018-02-16T05:13:23.672Z,98.90
2018-02-16T05:15:51.269Z,99.00
2018-02-16T05:18:18.818Z,99.00
2018-02-16T05:20:48.098Z,99.10
2018-02-16T05:23:15.693Z,99.00
2018-02-16T05:25:43.326Z,99.00
2018-02-16T05:28:19.083Z,99.00
2018-02-16T05:30:46.667Z,99.00
2018-02-16T05:33:14.230Z,99.00
2018-02-16T05:35:41.817Z,99.00
2018-02-16T05:38:10.216Z,99.30
2018-02-16T05:40:37.824Z,98.90
2018-02-16T05:43:05.422Z,98.90
2018-02-16T05:45:33.786Z,98.90
2018-02-16T05:48:01.396Z,98.90
2018-02-16T05:50:28.983Z,99.00
2018-02-16T05:52:56.591Z,99.00
2018-02-16T05:55:24.213Z,99.00
2018-02-16T05:57:51.810Z,99.00
2018-02-16T06:00:19.375Z,99.00
2018-02-16T06:02:46.978Z,99.00
2018-02-16T06:05:14.606Z,99.00
2018-02-16T06:07:42.175Z,98.90
2018-02-16T06:10:09.745Z,98.80
2018-02-16T06:12:37.314Z,98.80
2018-02-16T06:15:04.902Z,98.60
2018-02-16T06:17:32.495Z,98.60
2018-02-16T06:20:00.072Z,98.50
2018-02-16T06:22:27.819Z,98.50
2018-02-16T06:24:55.406Z,98.40
2018-02-16T06:27:23.819Z,98.10
2018-02-16T06:29:51.370Z,98.10
2018-02-16T06:32:18.955Z,97.80
2018-02-16T06:34:47.289Z,97.30
2018-02-16T06:37:14.904Z,97.30
2018-02-16T06:39:43.262Z,97.20
2018-02-16T06:42:10.895Z,97.20
2018-02-16T06:44:38.499Z,97.10
2018-02-16T06:47:06.863Z,96.90
2018-02-16T06:49:34.455Z,96.90
2018-02-16T06:52:02.026Z,96.80
2018-02-16T06:54:29.624Z,96.70
2018-02-16T06:56:57.215Z,96.80
2018-02-16T06:59:25.545Z,96.90
2018-02-16T07:01:53.171Z,96.90
2018-02-16T07:04:20.762Z,96.90
2018-02-16T07:06:48.314Z,97.20
2018-02-16T07:09:15.886Z,96.90
2018-02-16T07:11:43.517Z,97.00
2018-02-16T07:14:11.095Z,97.10
2018-02-16T07:16:38.722Z,97.20
2018-02-16T07:19:06.298Z,97.10
2018-02-16T07:21:33.893Z,96.90
2018-02-16T07:24:16.848Z,96.80
2018-02-16T07:26:45.209Z,96.50
2018-02-16T07:29:12.821Z,96.50
2018-02-16T07:31:40.379Z,96.50
2018-02-16T07:34:07.989Z,96.50
2018-02-16T07:36:35.578Z,96.40
2018-02-16T07:39:03.901Z,96.40
2018-02-16T07:41:31.530Z,96.50
2018-02-16T07:43:59.130Z,96.60
2018-02-16T07:46:26.694Z,96.40
2018-02-16T07:48:54.323Z,96.40
2018-02-16T07:51:21.943Z,95.80
2018-02-16T07:53:50.307Z,95.20
2018-02-16T07:56:17.900Z,95.20
2018-02-16T07:58:45.491Z,94.90
2018-02-16T08:01:13.074Z,94.90
2018-02-16T08:03:40.711Z,93.80
2018-02-16T08:06:08.280Z,93.20
2018-02-16T08:08:35.850Z,93.00
2018-02-16T08:11:03.438Z,92.80
2018-02-16T08:13:31.039Z,92.10
2018-02-16T08:15:59.415Z,87.10
2018-02-16T08:18:26.994Z,87.10
2018-02-16T08:20:54.586Z,86.80
2018-02-16T08:23:22.180Z,88.60
2018-02-16T08:25:49.759Z,90.20
2018-02-16T08:28:17.324Z,90.20
2018-02-16T08:30:45.706Z,90.90
2018-02-16T08:33:13.294Z,90.90
2018-02-16T08:35:40.890Z,91.80
2018-02-16T08:38:08.472Z,92.10
2018-02-16T08:40:36.074Z,92.50
2018-02-16T08:43:03.655Z,93.10
2018-02-16T08:45:32.012Z,92.50
2018-02-16T08:47:59.614Z,92.40
2018-02-16T08:50:27.235Z,92.60
2018-02-16T08:52:54.855Z,92.10
2018-02-16T08:55:22.444Z,92.20
2018-02-16T08:57:50.004Z,92.70
2018-02-16T09:00:17.635Z,91.40
2018-02-16T09:02:45.207Z,91.30
2018-02-16T09:05:12.796Z,90.40
2018-02-16T09:07:40.365Z,89.10
2018-02-16T09:10:08.765Z,87.00
2018-02-16T09:12:36.363Z,86.70
2018-02-16T09:15:03.947Z,86.20
2018-02-16T09:17:31.551Z,87.60
2018-02-16T09:19:59.172Z,86.30
2018-02-16T09:25:00.895Z,89.70
2018-02-16T09:27:28.500Z,90.00
2018-02-16T09:29:56.147Z,88.30
2018-02-16T09:32:23.734Z,90.20
2018-02-16T09:34:52.109Z,90.90
2018-02-16T09:37:19.774Z,90.90
2018-02-16T09:39:48.982Z,91.20
2018-02-16T09:42:17.378Z,90.50
2018-02-16T09:44:44.990Z,90.50
2018-02-16T09:47:12.654Z,90.80
2018-02-16T09:49:40.251Z,90.70
2018-02-16T09:52:07.838Z,88.80
2018-02-16T09:54:35.460Z,88.70
2018-02-16T09:57:03.832Z,88.40
2018-02-16T09:59:31.402Z,88.40
2018-02-16T10:01:59.754Z,87.90
2018-02-16T10:04:27.398Z,87.90
2018-02-16T10:06:54.961Z,86.30
2018-02-16T10:09:22.518Z,85.80
2018-02-16T10:11:50.099Z,82.20
2018-02-16T10:14:17.695Z,74.70
2018-02-16T10:16:45.309Z,73.30
2018-02-16T10:19:12.965Z,74.70
2018-02-16T10:21:40.576Z,76.90
2018-02-16T10:24:08.179Z,81.50
2018-02-16T10:26:35.834Z,82.80
2018-02-16T10:29:03.407Z,82.70
2018-02-16T10:31:31.048Z,84.80
2018-02-16T10:33:58.646Z,86.90
2018-02-16T10:36:26.238Z,87.60
2018-02-16T10:38:54.586Z,82.10
2018-02-16T10:41:22.198Z,81.50
2018-02-16T10:43:49.802Z,80.80
2018-02-16T10:46:17.403Z,76.90
2018-02-16T10:48:45.012Z,77.30
2018-02-16T10:51:12.582Z,76.30
2018-02-16T10:53:40.190Z,78.10
2018-02-16T10:56:07.747Z,76.10
2018-02-16T10:58:42.190Z,73.80
2018-02-16T11:01:15.435Z,69.00
2018-02-16T11:03:43.014Z,70.80
2018-02-16T11:06:12.568Z,67.70
2018-02-16T11:08:45.798Z,69.40
2018-02-16T11:11:14.166Z,58.40
2018-02-16T11:13:42.478Z,57.10
2018-02-16T11:16:10.110Z,57.10
2018-02-16T11:18:38.430Z,51.80
2018-02-16T11:21:06.090Z,51.70
2018-02-16T11:23:33.728Z,52.70
2018-02-16T11:26:01.332Z,51.60
2018-02-16T11:28:28.890Z,52.00
2018-02-16T11:30:56.436Z,51.40
2018-02-16T11:33:24.038Z,53.10
2018-02-16T11:35:51.662Z,56.70
2018-02-16T11:38:19.224Z,56.50
2018-02-16T11:40:46.764Z,57.90
2018-02-16T11:43:14.337Z,59.70
2018-02-16T11:45:41.901Z,62.80
2018-02-16T11:48:09.498Z,63.00
2018-02-16T11:51:52.813Z,63.70
2018-02-16T11:54:20.427Z,64.20
2018-02-16T11:56:54.916Z,62.40
2018-02-16T11:59:28.711Z,65.40
2018-02-16T12:01:56.271Z,62.10
2018-02-16T12:04:23.876Z,62.10
2018-02-16T12:06:51.432Z,60.10
2018-02-16T12:09:18.996Z,61.00
2018-02-16T12:11:46.572Z,58.60
2018-02-16T12:14:14.977Z,59.10
2018-02-16T12:16:46.157Z,59.00
2018-02-16T12:19:14.531Z,59.10
2018-02-16T12:21:42.862Z,58.80
2018-02-16T12:24:10.483Z,58.80
2018-02-16T12:26:38.071Z,57.80
2018-02-16T12:29:05.692Z,58.80
2018-02-16T12:31:34.080Z,56.20
2018-02-16T12:34:01.676Z,56.20
2018-02-16T12:36:29.258Z,56.80
2018-02-16T12:38:56.814Z,58.60
2018-02-16T12:41:24.426Z,57.90
2018-02-16T12:43:52.030Z,59.40
2018-02-16T12:46:19.641Z,57.80
2018-02-16T12:48:47.199Z,57.30
2018-02-16T12:51:14.780Z,60.80
2018-02-16T12:53:42.415Z,60.10
2018-02-16T12:56:10.811Z,64.10
2018-02-16T12:58:38.396Z,64.00
2018-02-16T13:01:05.973Z,64.30
2018-02-16T13:03:33.562Z,62.60
2018-02-16T13:06:01.991Z,61.40
2018-02-16T13:08:29.610Z,61.40
2018-02-16T13:10:58.015Z,58.70
2018-02-16T13:13:25.897Z,58.70
2018-02-16T13:15:53.470Z,57.20
2018-02-16T13:18:21.060Z,57.80
2018-02-16T13:20:48.691Z,57.70
2018-02-16T13:23:16.283Z,59.70
2018-02-16T13:25:43.914Z,60.90
2018-02-16T13:28:11.512Z,58.40
2018-02-16T13:30:39.889Z,59.40
2018-02-16T13:33:08.370Z,59.40
2018-02-16T13:35:36.714Z,55.60
2018-02-16T13:38:04.362Z,55.50
2018-02-16T13:40:31.910Z,56.80
2018-02-16T13:42:59.502Z,53.70
2018-02-16T13:45:27.198Z,54.10
2018-02-16T13:47:55.591Z,53.90
2018-02-16T13:50:23.222Z,53.80
2018-02-16T13:52:50.806Z,56.20
2018-02-16T13:55:18.396Z,56.20
2018-02-16T13:57:46.003Z,54.00
2018-02-16T14:00:13.620Z,52.60
2018-02-16T14:02:41.186Z,48.10
2018-02-16T14:05:08.762Z,47.60
2018-02-16T14:07:36.343Z,48.80
2018-02-16T14:10:03.926Z,49.90
2018-02-16T14:12:31.521Z,47.10
2018-02-16T14:14:59.131Z,47.40
2018-02-16T14:17:27.456Z,45.90
2018-02-16T14:19:55.052Z,45.80
2018-02-16T14:22:22.664Z,45.70
2018-02-16T14:24:50.292Z,46.10
2018-02-16T14:27:18.721Z,43.10
2018-02-16T14:29:46.281Z,43.00
2018-02-16T14:32:13.878Z,41.60
2018-02-16T14:34:41.444Z,46.00
2018-02-16T14:37:09.073Z,42.50
2018-02-16T14:39:36.637Z,38.60
2018-02-16T14:42:04.194Z,41.00
2018-02-16T14:44:32.709Z,39.90
2018-02-16T14:47:01.051Z,41.50
2018-02-16T14:49:28.658Z,41.50
2018-02-16T14:51:57.048Z,42.90
2018-02-16T14:54:24.647Z,42.90
2018-02-16T14:56:52.215Z,46.60
2018-02-16T14:59:19.819Z,49.30
2018-02-16T15:01:48.152Z,52.20
2018-02-16T15:04:15.791Z,52.10
2018-02-16T15:06:43.423Z,54.60
2018-02-16T15:09:11.030Z,54.20
2018-02-16T15:11:38.592Z,56.10
2018-02-16T15:14:06.194Z,58.40
2018-02-16T15:16:33.777Z,60.30
2018-02-16T15:19:01.320Z,63.10
2018-02-16T15:21:28.924Z,64.40
2018-02-16T15:23:56.526Z,64.90
2018-02-16T15:26:24.124Z,65.20
2018-02-16T15:28:51.743Z,66.50
2018-02-16T15:31:20.082Z,66.10
2018-02-16T15:33:47.675Z,66.00
2018-02-16T15:36:16.043Z,65.70
2018-02-16T15:38:43.654Z,65.60
2018-02-16T15:41:11.270Z,67.30
2018-02-16T15:43:39.638Z,68.10
2018-02-16T15:46:07.238Z,68.10
2018-02-16T15:48:34.831Z,68.70
2018-02-16T15:51:02.439Z,70.00
2018-02-16T15:53:30.805Z,70.10
2018-02-16T15:55:59.206Z,70.90
2018-02-16T15:58:26.779Z,70.90
2018-02-16T16:00:54.391Z,71.30
2018-02-16T16:03:21.998Z,72.60
2018-02-16T16:05:49.577Z,72.30
2018-02-16T16:08:17.956Z,73.50
2018-02-16T16:10:45.575Z,73.50
2018-02-16T16:13:13.937Z,74.00
2018-02-16T16:15:41.572Z,74.10
2018-02-16T16:18:09.223Z,73.90
2018-02-16T16:20:36.813Z,74.20
2018-02-16T16:23:04.428Z,74.90
2018-02-16T16:25:32.052Z,74.30
2018-02-16T16:28:00.426Z,74.30
2018-02-16T16:30:28.023Z,74.20
2018-02-16T16:32:55.629Z,74.60
2018-02-16T16:35:23.237Z,73.90
2018-02-16T16:37:50.846Z,74.40
2018-02-16T16:40:18.468Z,74.40
2018-02-16T16:42:46.076Z,75.00
2018-02-16T16:45:13.672Z,74.50
2018-02-16T16:47:41.255Z,75.70
2018-02-16T16:50:08.891Z,76.10
2018-02-16T16:52:36.523Z,75.40
2018-02-16T16:55:04.114Z,75.50
2018-02-16T16:57:31.703Z,76.60
2018-02-16T16:59:59.349Z,77.10
2018-02-16T17:02:26.954Z,76.90
2018-02-16T17:04:54.563Z,77.50
2018-02-16T17:07:22.922Z,78.10
2018-02-16T17:09:51.304Z,78.00
2018-02-16T17:12:19.695Z,78.30
2018-02-16T17:14:47.315Z,78.30
2018-02-16T17:17:14.939Z,78.30
2018-02-16T17:19:42.564Z,78.50
2018-02-16T17:22:11.848Z,78.90
2018-02-16T17:24:39.441Z,78.90
2018-02-16T17:27:07.036Z,78.70
2018-02-16T17:29:34.622Z,79.60
2018-02-16T17:32:02.978Z,80.50
2018-02-16T17:34:30.573Z,79.80
2018-02-16T17:36:58.910Z,81.00
2018-02-16T17:39:26.500Z,81.00
2018-02-16T17:41:54.748Z,81.90
2018-02-16T17:44:22.321Z,82.80
2018-02-16T17:46:51.438Z,83.70
2018-02-16T17:49:19.808Z,85.80
2018-02-16T17:51:47.410Z,85.70
2018-02-16T17:54:15.015Z,85.00
2018-02-16T17:56:42.598Z,85.20
2018-02-16T17:59:10.970Z,86.20
2018-02-16T18:01:38.579Z,86.10
2018-02-16T18:04:06.178Z,86.60
2018-02-16T18:06:33.785Z,87.20
2018-02-16T18:09:01.437Z,87.10
2018-02-16T18:11:29.023Z,87.40
2018-02-16T18:13:56.607Z,87.60
2018-02-16T18:16:24.187Z,87.80
2018-02-16T18:18:51.760Z,88.00
2018-02-16T18:21:20.166Z,89.10
2018-02-16T18:23:47.740Z,89.10
2018-02-16T18:26:15.344Z,89.90
2018-02-16T18:28:42.950Z,90.30
2018-02-16T18:31:10.545Z,90.40
2018-02-16T18:33:38.116Z,90.10
2018-02-16T18:36:05.722Z,90.10
2018-02-16T18:38:33.307Z,90.40
2018-02-16T18:41:00.928Z,91.10
2018-02-16T18:46:44.399Z,91.80
2018-02-16T18:49:17.681Z,91.10
2018-02-16T18:51:45.256Z,91.50
2018-02-16T18:54:12.806Z,92.40
2018-02-16T18:56:54.691Z,92.10
2018-02-16T18:59:22.287Z,92.10
2018-02-16T19:01:49.981Z,92.20
2018-02-16T19:04:17.598Z,92.30
2018-02-16T19:06:45.212Z,92.20
2018-02-16T19:09:12.810Z,92.00
2018-02-16T19:11:40.394Z,91.90
2018-02-16T19:14:07.994Z,91.70
2018-02-16T19:16:35.629Z,91.70
2018-02-16T19:19:03.211Z,91.50
2018-02-16T19:21:30.844Z,91.80
2018-02-16T19:27:01.775Z,91.70
2018-02-16T19:29:29.400Z,92.00
2018-02-16T19:31:56.995Z,92.40
2018-02-16T19:34:24.617Z,92.70
2018-02-16T19:36:52.169Z,92.70
2018-02-16T19:39:19.798Z,92.70
2018-02-16T19:41:47.414Z,93.10
2018-02-16T19:44:15.782Z,92.80
2018-02-16T19:46:44.176Z,92.70
2018-02-16T19:49:11.788Z,92.60
2018-02-16T19:51:39.418Z,92.90
2018-02-16T19:54:07.043Z,93.00
2018-02-16T19:56:35.405Z,93.30
2018-02-16T19:59:16.415Z,93.20
2018-02-16T20:01:44.011Z,93.10
2018-02-16T20:04:11.660Z,93.30
2018-02-16T20:06:39.277Z,93.70
2018-02-16T20:09:07.661Z,93.90
2018-02-16T20:11:35.984Z,93.90
2018-02-16T20:14:03.581Z,93.80
2018-02-16T20:16:31.979Z,93.10
2018-02-16T20:19:00.336Z,92.80
2018-02-16T20:21:27.995Z,92.80
2018-02-16T20:23:55.578Z,93.00
2018-02-16T20:26:23.984Z,93.30
2018-02-16T20:28:51.639Z,93.30
2018-02-16T20:31:20.006Z,93.50
2018-02-16T20:33:47.590Z,93.40
2018-02-16T20:36:15.964Z,93.40
2018-02-16T20:38:43.558Z,93.40
2018-02-16T20:41:11.186Z,93.30
2018-02-16T20:43:38.776Z,93.40
2018-02-16T20:46:06.406Z,93.00
2018-02-16T20:48:37.070Z,93.10
2018-02-16T20:51:04.724Z,93.60
2018-02-16T20:53:32.302Z,93.70
2018-02-16T20:55:59.935Z,93.40
2018-02-16T20:58:27.534Z,93.50
2018-02-16T21:00:55.154Z,93.60
2018-02-16T21:03:22.718Z,93.20
2018-02-16T21:05:50.307Z,93.10
2018-02-16T21:08:17.905Z,92.90
2018-02-16T21:10:45.586Z,93.30
2018-02-16T21:13:13.180Z,93.00
2018-02-16T21:15:40.815Z,93.10
2018-02-16T21:18:08.434Z,93.90
2018-02-16T21:20:36.831Z,96.50
2018-02-16T21:23:04.468Z,96.50
2018-02-16T21:25:32.057Z,95.80
2018-02-16T21:27:59.699Z,95.40
2018-02-16T21:30:28.051Z,95.00
2018-02-16T21:32:55.673Z,94.90
2018-02-16T21:35:23.224Z,94.70
2018-02-16T21:37:50.852Z,94.40
2018-02-16T21:40:18.468Z,94.80
2018-02-16T21:42:46.094Z,95.00
2018-02-16T21:45:13.672Z,94.60
2018-02-16T21:47:41.301Z,96.30
2018-02-16T21:50:09.655Z,96.10
2018-02-16T21:52:37.217Z,96.10
2018-02-16T21:55:04.848Z,95.80
2018-02-16T21:57:32.464Z,95.30
2018-02-16T22:00:00.065Z,94.70
2018-02-16T22:02:27.671Z,94.70
2018-02-16T22:04:56.004Z,95.40
2018-02-16T22:07:23.607Z,95.30
2018-02-16T22:09:51.993Z,94.60
2018-02-16T22:12:20.367Z,94.40
2018-02-16T22:14:48.777Z,94.50
2018-02-16T22:17:16.343Z,94.40
2018-02-16T22:19:48.936Z,94.60
2018-02-16T22:22:16.560Z,96.30
2018-02-16T22:24:44.148Z,97.40
2018-02-16T22:27:11.784Z,96.90
2018-02-16T22:29:39.387Z,96.40
2018-02-16T22:32:06.965Z,96.20
2018-02-16T22:34:34.548Z,95.70
2018-02-16T22:37:02.945Z,95.10
2018-02-16T22:39:30.597Z,95.10
2018-02-16T22:41:58.974Z,95.60
2018-02-16T22:44:26.556Z,95.60
2018-02-16T22:46:54.184Z,95.30
2018-02-16T22:49:22.533Z,94.90
2018-02-16T22:51:50.149Z,94.90
2018-02-16T22:54:17.799Z,96.10
2018-02-16T22:56:45.405Z,95.80
2018-02-16T22:59:13.039Z,95.80
2018-02-16T23:01:40.643Z,95.60
2018-02-16T23:04:08.206Z,96.10
2018-02-16T23:06:35.823Z,96.50
2018-02-16T23:09:03.416Z,96.20
2018-02-16T23:11:31.011Z,95.80
2018-02-16T23:13:58.603Z,95.70
2018-02-16T23:16:26.208Z,96.00
2018-02-16T23:18:53.768Z,95.80
2018-02-16T23:21:21.408Z,95.50
2018-02-16T23:23:49.058Z,95.10
2018-02-16T23:26:16.627Z,95.00
2018-02-16T23:28:44.230Z,95.20
2018-02-16T23:31:12.584Z,94.80
2018-02-16T23:33:40.236Z,94.70
2018-02-16T23:36:07.823Z,95.10
2018-02-16T23:38:36.221Z,95.30
2018-02-16T23:41:03.806Z,95.30
2018-02-16T23:43:32.151Z,95.60
2018-02-16T23:45:59.767Z,95.60
2018-02-16T23:48:27.388Z,95.50
2018-02-16T23:50:55.004Z,95.50
2018-02-16T23:53:22.600Z,95.40
2018-02-16T23:55:50.225Z,95.30
2018-02-16T23:58:17.788Z,95.10
